createdAt,value
2022-12-31T00:00:31.389Z,0.97
2022-12-31T00:02:58.919Z,1.03
2022-12-31T00:05:26.417Z,0.60
2022-12-31T00:07:53.800Z,0.80
2022-12-31T00:10:21.793Z,0.70
2022-12-31T00:12:49.089Z,0.80
2022-12-31T00:15:16.479Z,0.80
2022-12-31T00:17:43.766Z,0.70
2022-12-31T00:20:11.353Z,0.80
2022-12-31T00:22:38.725Z,0.60
2022-12-31T00:25:06.371Z,0.70
2022-12-31T00:27:34.217Z,0.70
2022-12-31T00:30:04.651Z,0.70
2022-12-31T00:32:32.504Z,0.77
2022-12-31T00:34:59.795Z,0.90
2022-12-31T00:37:27.069Z,0.60
2022-12-31T00:39:54.400Z,1.47
2022-12-31T00:42:21.908Z,0.80
2022-12-31T00:44:49.260Z,0.97
2022-12-31T00:47:16.665Z,0.80
2022-12-31T00:49:43.935Z,0.80
2022-12-31T00:52:13.830Z,0.70
2022-12-31T00:54:41.198Z,0.70
2022-12-31T00:57:08.548Z,0.70
2022-12-31T00:59:35.834Z,0.60
2022-12-31T01:02:03.278Z,1.03
2022-12-31T01:04:30.610Z,0.70
2022-12-31T01:06:57.866Z,0.70
2022-12-31T01:09:25.116Z,0.80
2022-12-31T01:11:52.407Z,0.77
2022-12-31T01:14:20.528Z,0.60
2022-12-31T01:16:52.238Z,0.70
2022-12-31T01:19:22.254Z,1.57
2022-12-31T01:21:50.263Z,0.70
2022-12-31T01:24:18.068Z,0.80
2022-12-31T01:26:45.832Z,0.70
2022-12-31T01:29:13.763Z,0.50
2022-12-31T01:31:41.440Z,0.63
2022-12-31T01:34:09.614Z,0.80
2022-12-31T01:36:38.019Z,0.60
2022-12-31T01:39:06.418Z,0.60
2022-12-31T01:41:35.038Z,1.43
2022-12-31T01:44:22.297Z,0.60
2022-12-31T01:46:54.205Z,0.50
2022-12-31T01:49:51.126Z,0.77
2022-12-31T01:52:21.414Z,0.80
2022-12-31T01:54:52.925Z,0.70
2022-12-31T01:57:20.629Z,2.10
2022-12-31T01:59:48.265Z,0.50
2022-12-31T02:02:16.444Z,0.50
2022-12-31T02:04:43.856Z,0.70
2022-12-31T02:07:12.270Z,0.60
2022-12-31T02:09:40.624Z,1.03
2022-12-31T02:12:08.536Z,0.53
2022-12-31T02:14:39.824Z,0.60
2022-12-31T02:17:19.271Z,0.60
2022-12-31T02:19:49.496Z,0.60
2022-12-31T02:22:35.686Z,0.60
2022-12-31T02:25:23.234Z,0.50
2022-12-31T02:27:50.601Z,0.60
2022-12-31T02:30:19.091Z,0.53
2022-12-31T02:33:12.706Z,0.60
2022-12-31T02:35:58.453Z,0.70
2022-12-31T02:38:27.397Z,0.70
2022-12-31T02:40:55.176Z,0.50
2022-12-31T02:43:22.525Z,0.67
2022-12-31T02:46:03.333Z,0.50
2022-12-31T02:48:41.447Z,0.70
2022-12-31T02:51:18.954Z,0.53
2022-12-31T02:53:52.418Z,0.57
2022-12-31T02:56:23.989Z,0.60
2022-12-31T02:59:15.962Z,0.60
2022-12-31T03:02:04.712Z,0.53
2022-12-31T03:04:34.198Z,0.60
2022-12-31T03:07:03.052Z,0.70
2022-12-31T03:09:30.357Z,0.60
2022-12-31T03:12:16.292Z,0.50
2022-12-31T03:14:43.629Z,0.60
2022-12-31T03:17:10.945Z,0.60
2022-12-31T03:19:56.863Z,0.87
2022-12-31T03:22:30.318Z,0.60
2022-12-31T03:25:27.358Z,0.60
2022-12-31T03:27:54.741Z,0.60
2022-12-31T03:30:23.305Z,0.60
2022-12-31T03:32:51.161Z,0.60
2022-12-31T03:35:20.426Z,0.50
2022-12-31T03:37:48.109Z,0.70
2022-12-31T03:40:16.330Z,0.67
2022-12-31T03:42:43.592Z,0.60
2022-12-31T03:45:11.497Z,0.50
2022-12-31T03:47:39.138Z,1.10
2022-12-31T03:50:06.811Z,1.23
2022-12-31T03:52:34.164Z,0.67
2022-12-31T03:55:02.257Z,0.70
2022-12-31T03:57:30.000Z,0.50
2022-12-31T03:59:57.329Z,0.60
2022-12-31T04:02:28.809Z,0.63
2022-12-31T04:04:56.784Z,0.67
2022-12-31T04:07:24.226Z,0.53
2022-12-31T04:09:51.544Z,0.70
2022-12-31T04:12:18.835Z,0.73
2022-12-31T04:14:46.093Z,0.60
2022-12-31T04:17:13.442Z,0.60
2022-12-31T04:19:40.753Z,1.40
2022-12-31T04:22:08.019Z,0.47
2022-12-31T04:24:35.318Z,0.70
2022-12-31T04:27:07.479Z,0.80
2022-12-31T04:29:35.667Z,0.80
2022-12-31T04:32:04.680Z,0.60
2022-12-31T04:34:32.354Z,0.60
2022-12-31T04:37:00.044Z,0.60
2022-12-31T04:39:27.526Z,1.40
2022-12-31T04:41:55.008Z,0.63
2022-12-31T04:44:22.810Z,0.50
2022-12-31T04:46:50.078Z,0.80
2022-12-31T04:49:17.399Z,0.60
2022-12-31T04:51:44.748Z,0.60
2022-12-31T04:54:12.090Z,0.50
2022-12-31T04:56:39.384Z,0.50
2022-12-31T04:59:07.398Z,0.80
2022-12-31T05:01:36.698Z,0.60
2022-12-31T05:04:04.282Z,0.50
2022-12-31T05:06:31.620Z,0.80
2022-12-31T05:08:58.930Z,0.50
2022-12-31T05:11:26.275Z,0.60
2022-12-31T05:13:53.526Z,0.70
2022-12-31T05:16:20.884Z,0.60
2022-12-31T05:18:49.281Z,0.70
2022-12-31T05:21:20.027Z,0.57
2022-12-31T05:23:47.552Z,0.63
2022-12-31T05:26:15.474Z,0.60
2022-12-31T05:28:42.820Z,0.80
2022-12-31T05:31:10.199Z,1.83
2022-12-31T05:33:37.648Z,0.70
2022-12-31T05:36:05.149Z,0.60
2022-12-31T05:38:32.510Z,0.60
2022-12-31T05:41:00.670Z,0.90
2022-12-31T05:43:28.051Z,0.80
2022-12-31T05:45:55.444Z,0.70
2022-12-31T05:48:24.286Z,0.50
2022-12-31T05:50:51.599Z,0.97
2022-12-31T05:53:18.976Z,1.00
2022-12-31T05:55:49.790Z,0.90
2022-12-31T05:58:17.075Z,1.33
2022-12-31T06:00:46.007Z,0.83
2022-12-31T06:03:13.691Z,0.90
2022-12-31T06:05:41.967Z,0.73
2022-12-31T06:08:09.473Z,0.83
2022-12-31T06:10:36.784Z,1.33
2022-12-31T06:13:04.356Z,1.53
2022-12-31T06:15:31.879Z,1.10
2022-12-31T06:17:59.231Z,0.80
2022-12-31T06:20:26.560Z,1.20
2022-12-31T06:22:53.956Z,1.20
2022-12-31T06:25:21.331Z,0.80
2022-12-31T06:27:48.982Z,1.27
2022-12-31T06:30:16.292Z,0.80
2022-12-31T06:32:43.687Z,0.90
2022-12-31T06:35:11.217Z,1.23
2022-12-31T06:37:38.558Z,1.00
2022-12-31T06:40:06.186Z,0.80
2022-12-31T06:42:33.468Z,0.97
2022-12-31T06:45:00.777Z,0.80
2022-12-31T06:47:29.549Z,1.33
2022-12-31T06:49:56.912Z,0.63
2022-12-31T06:52:24.286Z,0.70
2022-12-31T06:54:51.727Z,0.80
2022-12-31T06:57:19.336Z,0.87
2022-12-31T06:59:46.885Z,0.60
2022-12-31T07:02:33.278Z,0.70
2022-12-31T07:05:08.311Z,0.80
2022-12-31T07:07:46.471Z,0.77
2022-12-31T07:10:16.817Z,0.47
2022-12-31T07:13:02.835Z,0.60
2022-12-31T07:15:49.104Z,0.40
2022-12-31T07:18:39.501Z,0.50
2022-12-31T07:21:17.676Z,0.87
2022-12-31T07:23:45.228Z,0.40
2022-12-31T07:26:18.527Z,0.70
2022-12-31T07:28:54.654Z,0.50
2022-12-31T07:31:41.270Z,0.67
2022-12-31T07:34:19.619Z,0.50
2022-12-31T07:36:51.049Z,0.40
2022-12-31T07:39:56.896Z,0.53
2022-12-31T07:42:39.005Z,0.60
2022-12-31T07:45:15.407Z,0.50
2022-12-31T07:47:42.826Z,0.50
2022-12-31T07:50:15.367Z,0.60
2022-12-31T07:52:42.962Z,0.60
2022-12-31T07:55:10.970Z,0.67
2022-12-31T07:58:00.317Z,2.27
2022-12-31T08:00:28.548Z,0.70
2022-12-31T08:03:02.313Z,0.40
2022-12-31T08:05:34.831Z,0.40
2022-12-31T08:08:21.144Z,0.30
2022-12-31T08:10:57.075Z,0.30
2022-12-31T08:13:24.512Z,0.47
2022-12-31T08:15:52.097Z,0.47
2022-12-31T08:18:19.617Z,0.53
2022-12-31T08:21:10.029Z,0.50
2022-12-31T08:23:46.678Z,0.50
2022-12-31T08:26:26.333Z,0.50
2022-12-31T08:29:00.672Z,0.60
2022-12-31T08:31:45.555Z,0.50
2022-12-31T08:34:26.389Z,0.50
2022-12-31T08:37:11.778Z,0.67
2022-12-31T08:39:46.158Z,0.60
2022-12-31T08:42:33.729Z,0.83
2022-12-31T08:45:20.222Z,0.63
2022-12-31T08:47:52.751Z,0.93
2022-12-31T08:50:24.170Z,0.63
2022-12-31T08:52:51.646Z,1.37
2022-12-31T08:55:21.064Z,0.70
2022-12-31T08:57:54.662Z,0.60
2022-12-31T09:00:22.590Z,0.60
2022-12-31T09:02:49.878Z,0.40
2022-12-31T09:05:23.450Z,0.60
2022-12-31T09:08:09.747Z,0.50
2022-12-31T09:10:45.157Z,0.60
2022-12-31T09:13:24.007Z,0.70
2022-12-31T09:16:02.644Z,0.53
2022-12-31T09:18:33.354Z,0.80
2022-12-31T09:21:00.973Z,0.60
2022-12-31T09:23:28.444Z,0.60
2022-12-31T09:25:55.960Z,0.50
2022-12-31T09:28:33.572Z,0.70
2022-12-31T09:31:14.753Z,0.70
2022-12-31T09:33:52.866Z,0.63
2022-12-31T09:36:30.743Z,0.60
2022-12-31T09:39:11.628Z,0.80
2022-12-31T09:41:41.990Z,0.63
2022-12-31T09:44:36.837Z,0.50
2022-12-31T09:47:15.348Z,1.40
2022-12-31T09:49:45.699Z,1.23
2022-12-31T09:52:31.908Z,0.70
2022-12-31T09:55:08.427Z,1.17
2022-12-31T09:57:40.500Z,0.70
2022-12-31T10:00:12.327Z,0.67
2022-12-31T10:02:45.184Z,1.50
2022-12-31T10:05:39.753Z,0.60
2022-12-31T10:08:25.520Z,0.60
2022-12-31T10:10:54.002Z,0.73
2022-12-31T10:13:27.487Z,0.73
2022-12-31T10:16:05.508Z,0.43
2022-12-31T10:18:51.750Z,0.57
2022-12-31T10:21:19.360Z,0.80
2022-12-31T10:24:09.127Z,0.80
2022-12-31T10:26:46.235Z,1.97
2022-12-31T10:29:34.989Z,0.37
2022-12-31T10:32:19.318Z,0.50
2022-12-31T10:34:52.569Z,0.60
2022-12-31T10:37:21.305Z,1.50
2022-12-31T10:40:07.596Z,0.67
2022-12-31T10:42:58.213Z,0.80
2022-12-31T10:45:44.412Z,0.90
2022-12-31T10:48:30.707Z,0.70
2022-12-31T10:51:00.989Z,0.90
2022-12-31T10:53:47.312Z,0.70
2022-12-31T10:56:14.579Z,0.50
2022-12-31T10:58:54.105Z,0.50
2022-12-31T11:01:40.276Z,0.70
2022-12-31T11:04:24.550Z,0.80
2022-12-31T11:06:57.940Z,0.50
2022-12-31T11:09:50.247Z,0.93
2022-12-31T11:12:23.527Z,2.57
2022-12-31T11:14:53.751Z,0.87
2022-12-31T11:17:31.777Z,0.80
2022-12-31T11:20:11.133Z,0.63
2022-12-31T11:22:44.532Z,0.60
2022-12-31T11:25:11.831Z,0.70
2022-12-31T11:27:49.441Z,1.40
2022-12-31T11:30:31.802Z,1.00
2022-12-31T11:32:59.021Z,0.70
2022-12-31T11:35:32.869Z,0.50
2022-12-31T11:38:10.760Z,0.90
2022-12-31T11:40:44.070Z,0.63
2022-12-31T11:43:19.825Z,0.70
2022-12-31T11:45:56.329Z,0.73
2022-12-31T11:48:33.018Z,0.87
2022-12-31T11:51:19.348Z,2.20
2022-12-31T11:54:14.633Z,0.67
2022-12-31T11:56:42.646Z,0.80
2022-12-31T11:59:17.136Z,1.13
2022-12-31T12:01:53.235Z,0.57
2022-12-31T12:04:20.621Z,0.80
2022-12-31T12:06:48.565Z,0.77
2022-12-31T12:09:17.210Z,1.20
2022-12-31T12:11:44.566Z,0.70
2022-12-31T12:14:30.786Z,1.37
2022-12-31T12:17:04.416Z,0.80
2022-12-31T12:19:33.505Z,0.57
2022-12-31T12:22:10.047Z,0.77
2022-12-31T12:24:37.518Z,0.60
2022-12-31T12:27:05.105Z,0.70
2022-12-31T12:29:35.995Z,0.70
2022-12-31T12:32:05.876Z,0.73
2022-12-31T12:34:39.482Z,0.63
2022-12-31T12:37:28.233Z,1.07
2022-12-31T12:40:15.800Z,0.63
2022-12-31T12:42:50.450Z,0.60
2022-12-31T12:45:19.748Z,0.60
2022-12-31T12:47:48.118Z,0.60
2022-12-31T12:50:20.063Z,0.80
2022-12-31T12:52:59.511Z,0.63
2022-12-31T12:55:44.386Z,0.83
2022-12-31T12:58:19.201Z,0.70
2022-12-31T13:00:53.036Z,0.60
2022-12-31T13:03:33.973Z,0.70
2022-12-31T13:06:09.362Z,0.83
2022-12-31T13:08:48.877Z,0.73
2022-12-31T13:11:17.870Z,0.70
2022-12-31T13:13:53.613Z,0.53
2022-12-31T13:16:25.675Z,0.80
2022-12-31T13:19:19.395Z,0.67
2022-12-31T13:21:54.816Z,0.73
2022-12-31T13:24:26.722Z,0.70
2022-12-31T13:26:57.565Z,0.70
2022-12-31T13:29:27.018Z,0.70
2022-12-31T13:31:56.030Z,0.90
2022-12-31T13:34:26.440Z,2.97
2022-12-31T13:36:55.039Z,1.03
2022-12-31T13:39:30.055Z,0.60
2022-12-31T13:42:10.082Z,0.87
2022-12-31T13:44:40.895Z,0.77
2022-12-31T13:47:26.826Z,0.70
2022-12-31T13:49:58.108Z,0.77
2022-12-31T13:52:25.389Z,0.80
2022-12-31T13:55:11.046Z,0.87
2022-12-31T13:57:48.037Z,0.53
2022-12-31T14:00:20.753Z,0.70
2022-12-31T14:02:55.960Z,0.67
2022-12-31T14:05:35.133Z,0.70
2022-12-31T14:08:04.765Z,0.93
2022-12-31T14:10:41.687Z,0.90
2022-12-31T14:13:17.875Z,1.20
2022-12-31T14:16:02.976Z,0.87
2022-12-31T14:18:36.344Z,0.67
2022-12-31T14:21:17.749Z,1.43
2022-12-31T14:23:57.097Z,2.43
2022-12-31T14:26:27.623Z,0.90
2022-12-31T14:29:01.613Z,0.97
2022-12-31T14:31:28.968Z,0.73
2022-12-31T14:33:56.277Z,0.70
2022-12-31T14:36:29.575Z,0.80
2022-12-31T14:39:17.233Z,0.60
2022-12-31T14:41:56.062Z,0.90
2022-12-31T14:44:28.754Z,0.50
2022-12-31T14:47:08.332Z,1.37
2022-12-31T14:49:55.455Z,0.60
2022-12-31T14:52:41.661Z,0.70
2022-12-31T14:55:22.376Z,1.00
2022-12-31T15:00:38.533Z,0.77
2022-12-31T15:03:15.141Z,0.60
2022-12-31T15:06:01.374Z,1.20
2022-12-31T15:08:42.834Z,1.77
2022-12-31T15:11:16.412Z,0.80
2022-12-31T15:13:52.827Z,0.87
2022-12-31T15:16:26.354Z,1.07
2022-12-31T15:18:53.647Z,1.00
2022-12-31T15:21:24.093Z,0.90
2022-12-31T15:23:51.739Z,0.67
2022-12-31T15:26:22.175Z,1.10
2022-12-31T15:28:57.876Z,1.17
2022-12-31T15:31:25.553Z,0.70
2022-12-31T15:34:00.872Z,0.93
2022-12-31T15:36:32.751Z,1.40
2022-12-31T15:39:12.353Z,1.10
2022-12-31T15:42:18.785Z,0.63
2022-12-31T15:44:52.592Z,3.57
2022-12-31T15:47:35.324Z,1.30
2022-12-31T15:50:06.542Z,1.43
2022-12-31T15:52:40.808Z,2.33
2022-12-31T15:55:08.534Z,2.13
2022-12-31T15:57:42.636Z,3.40
2022-12-31T16:00:17.070Z,2.53
2022-12-31T16:02:44.836Z,1.70
2022-12-31T16:05:19.737Z,2.33
2022-12-31T16:07:47.847Z,1.83
2022-12-31T16:10:17.794Z,1.70
2022-12-31T16:12:45.517Z,1.97
2022-12-31T16:15:21.405Z,2.10
2022-12-31T16:17:58.680Z,2.10
2022-12-31T16:20:30.268Z,1.97
2022-12-31T16:22:57.991Z,3.47
2022-12-31T16:25:33.685Z,3.27
2022-12-31T16:28:02.514Z,3.53
2022-12-31T16:30:30.943Z,4.20
2022-12-31T16:33:03.132Z,5.03
2022-12-31T16:35:32.791Z,2.37
2022-12-31T16:38:01.383Z,2.20
2022-12-31T16:40:28.947Z,3.43
2022-12-31T16:42:56.330Z,2.77
2022-12-31T16:45:36.905Z,4.07
2022-12-31T16:48:14.539Z,2.20
2022-12-31T16:50:45.330Z,3.60
2022-12-31T16:53:13.760Z,5.27
2022-12-31T16:55:41.581Z,2.73
2022-12-31T16:58:16.356Z,4.50
2022-12-31T17:00:43.914Z,2.90
2022-12-31T17:03:18.484Z,3.87
2022-12-31T17:05:58.315Z,2.67
2022-12-31T17:08:30.001Z,2.63
2022-12-31T17:10:57.388Z,4.03
2022-12-31T17:13:29.600Z,4.40
2022-12-31T17:15:58.199Z,3.43
2022-12-31T17:18:27.571Z,3.03
2022-12-31T17:20:55.551Z,3.20
2022-12-31T17:23:32.280Z,2.63
2022-12-31T17:26:00.802Z,2.30
2022-12-31T17:28:29.421Z,3.03
2022-12-31T17:31:00.366Z,2.93
2022-12-31T17:33:28.702Z,2.70
2022-12-31T17:35:57.217Z,2.40
2022-12-31T17:38:24.548Z,2.37
2022-12-31T17:40:56.063Z,3.77
2022-12-31T17:43:25.113Z,1.93
2022-12-31T17:45:54.952Z,2.10
2022-12-31T17:48:24.782Z,2.10
2022-12-31T17:50:53.666Z,2.57
2022-12-31T17:53:21.316Z,1.77
2022-12-31T17:55:52.907Z,5.07
2022-12-31T17:58:29.887Z,1.70
2022-12-31T18:00:58.217Z,4.70
2022-12-31T18:03:25.752Z,2.53
2022-12-31T18:05:53.383Z,2.23
2022-12-31T18:08:20.600Z,2.93
2022-12-31T18:10:48.024Z,2.83
2022-12-31T18:13:20.167Z,2.90
2022-12-31T18:15:47.478Z,3.07
2022-12-31T18:18:25.340Z,2.83
2022-12-31T18:21:00.709Z,2.17
2022-12-31T18:23:30.994Z,3.43
2022-12-31T18:25:58.316Z,3.20
2022-12-31T18:28:25.668Z,3.03
2022-12-31T18:30:53.134Z,3.33
2022-12-31T18:33:23.719Z,5.00
2022-12-31T18:36:08.924Z,5.37
2022-12-31T18:38:37.179Z,7.53
2022-12-31T18:41:04.659Z,5.73
2022-12-31T18:43:32.182Z,3.60
2022-12-31T18:45:59.545Z,5.53
2022-12-31T18:48:26.924Z,4.47
2022-12-31T18:50:54.179Z,4.27
2022-12-31T18:53:22.441Z,3.40
2022-12-31T18:55:50.751Z,2.80
2022-12-31T18:58:18.348Z,3.23
2022-12-31T19:00:46.138Z,6.00
2022-12-31T19:03:15.261Z,4.73
2022-12-31T19:05:43.003Z,4.00
2022-12-31T19:08:10.273Z,3.77
2022-12-31T19:10:37.556Z,3.43
2022-12-31T19:13:04.985Z,3.97
2022-12-31T19:15:40.713Z,4.03
2022-12-31T19:18:09.516Z,4.13
2022-12-31T19:20:36.783Z,4.60
2022-12-31T19:23:04.205Z,3.27
2022-12-31T19:25:35.664Z,3.27
2022-12-31T19:28:04.752Z,2.67
2022-12-31T19:30:33.280Z,2.77
2022-12-31T19:33:01.905Z,4.80
2022-12-31T19:35:29.200Z,3.33
2022-12-31T19:37:56.485Z,3.27
2022-12-31T19:40:32.801Z,2.57
2022-12-31T19:43:00.102Z,6.17
2022-12-31T19:45:28.735Z,5.57
2022-12-31T19:47:57.214Z,8.60
2022-12-31T19:50:27.901Z,6.77
2022-12-31T19:52:57.451Z,4.67
2022-12-31T19:55:26.271Z,5.33
2022-12-31T19:57:53.667Z,5.63
2022-12-31T20:00:21.810Z,5.53
2022-12-31T20:02:49.633Z,4.33
2022-12-31T20:05:19.325Z,5.30
2022-12-31T20:07:46.792Z,6.87
2022-12-31T20:10:14.098Z,4.97
2022-12-31T20:12:44.576Z,5.13
2022-12-31T20:15:12.475Z,4.57
2022-12-31T20:17:39.880Z,5.40
2022-12-31T20:20:07.461Z,6.60
2022-12-31T20:22:34.764Z,5.87
2022-12-31T20:25:02.074Z,5.03
2022-12-31T20:27:29.529Z,6.73
2022-12-31T20:29:56.816Z,5.77
2022-12-31T20:32:24.136Z,4.67
2022-12-31T20:34:51.416Z,4.40
2022-12-31T20:37:18.694Z,4.60
2022-12-31T20:39:45.929Z,4.37
2022-12-31T20:42:13.222Z,5.73
2022-12-31T20:44:40.487Z,4.63
2022-12-31T20:47:07.768Z,5.70
2022-12-31T20:50:01.289Z,4.70
2022-12-31T20:52:22.360Z,5.30
2022-12-31T20:54:49.617Z,5.07
2022-12-31T20:57:16.931Z,4.77
2022-12-31T20:59:44.190Z,4.63
2022-12-31T21:02:29.621Z,4.57
2022-12-31T21:05:02.864Z,6.53
2022-12-31T21:07:30.425Z,4.70
2022-12-31T21:09:57.706Z,19.97
2022-12-31T21:12:43.447Z,14.40
2022-12-31T21:15:14.236Z,6.43
2022-12-31T21:17:41.628Z,4.93
2022-12-31T21:20:09.215Z,4.10
2022-12-31T21:22:36.568Z,7.43
2022-12-31T21:25:04.656Z,5.03
2022-12-31T21:27:32.171Z,4.83
2022-12-31T21:30:18.330Z,8.23
2022-12-31T21:32:46.088Z,4.83
2022-12-31T21:38:04.629Z,4.50
2022-12-31T21:40:31.912Z,3.90
2022-12-31T21:42:59.246Z,8.13
2022-12-31T21:45:26.749Z,3.77
2022-12-31T21:48:12.680Z,5.00
2022-12-31T21:50:39.983Z,7.10
2022-12-31T21:53:07.252Z,4.57
2022-12-31T21:55:57.932Z,4.77
2022-12-31T21:58:27.386Z,3.30
2022-12-31T22:01:14.492Z,4.10
2022-12-31T22:03:42.092Z,3.67
2022-12-31T22:06:10.810Z,4.40
2022-12-31T22:08:38.574Z,4.93
2022-12-31T22:11:06.228Z,4.03
2022-12-31T22:13:34.251Z,3.80
2022-12-31T22:16:05.270Z,3.87
2022-12-31T22:18:35.016Z,4.97
2022-12-31T22:21:10.862Z,3.73
2022-12-31T22:23:43.275Z,3.50
2022-12-31T22:26:12.134Z,6.63
2022-12-31T22:28:40.458Z,4.20
2022-12-31T22:31:14.930Z,4.23
2022-12-31T22:33:42.584Z,5.03
2022-12-31T22:36:14.311Z,5.63
2022-12-31T22:38:41.704Z,3.63
2022-12-31T22:41:13.715Z,4.43
2022-12-31T22:43:43.527Z,5.57
2022-12-31T22:46:12.605Z,3.73
2022-12-31T22:48:40.304Z,4.07
2022-12-31T22:51:08.196Z,6.07
2022-12-31T22:53:35.807Z,7.20
2022-12-31T22:56:03.111Z,5.10
2022-12-31T22:58:30.354Z,10.50
2022-12-31T23:00:57.670Z,6.30
2022-12-31T23:03:25.092Z,5.60
2022-12-31T23:05:53.129Z,6.77
2022-12-31T23:08:23.725Z,22.07
2022-12-31T23:11:06.076Z,42.23
2022-12-31T23:13:57.182Z,42.33
2022-12-31T23:16:44.088Z,44.80
2022-12-31T23:19:30.735Z,50.43
2022-12-31T23:22:16.688Z,47.83
2022-12-31T23:24:43.996Z,64.80
2022-12-31T23:27:11.812Z,143.77
2022-12-31T23:29:46.050Z,67.57
2022-12-31T23:32:15.985Z,52.27
2022-12-31T23:34:44.411Z,50.73
2022-12-31T23:37:12.376Z,47.30
2022-12-31T23:39:40.067Z,46.53
2022-12-31T23:42:07.411Z,39.80
2022-12-31T23:44:34.667Z,34.77
2022-12-31T23:47:01.955Z,48.53
2022-12-31T23:49:29.216Z,41.33
2022-12-31T23:51:56.472Z,47.90
2022-12-31T23:54:23.731Z,47.30
2022-12-31T23:56:51.010Z,39.37
2022-12-31T23:59:18.523Z,40.77
